sensor_id;sensor_type;location;lat;lon;timestamp;P1;durP1;ratioP1;P2;durP2;ratioP2
817;SDS011;391;51.052;6.954;2022-12-07T00:01:48;61.83;;;55.77;;
817;SDS011;391;51.052;6.954;2022-12-07T00:03:52;57.27;;;52.10;;
817;SDS011;391;51.052;6.954;2022-12-07T00:06:00;58.67;;;53.17;;
817;SDS011;391;51.052;6.954;2022-12-07T00:08:04;69.97;;;62.07;;
817;SDS011;391;51.052;6.954;2022-12-07T00:10:08;53.67;;;48.27;;
817;SDS011;391;51.052;6.954;2022-12-07T00:12:11;48.10;;;43.17;;
817;SDS011;391;51.052;6.954;2022-12-07T00:14:15;54.90;;;49.75;;
817;SDS011;391;51.052;6.954;2022-12-07T00:16:20;58.70;;;52.90;;
817;SDS011;391;51.052;6.954;2022-12-07T00:18:25;56.70;;;50.47;;
817;SDS011;391;51.052;6.954;2022-12-07T00:20:28;64.40;;;57.43;;
817;SDS011;391;51.052;6.954;2022-12-07T00:22:33;47.87;;;43.40;;
817;SDS011;391;51.052;6.954;2022-12-07T00:24:36;45.27;;;40.77;;
817;SDS011;391;51.052;6.954;2022-12-07T00:26:40;59.80;;;54.30;;
817;SDS011;391;51.052;6.954;2022-12-07T00:28:46;55.27;;;50.47;;
817;SDS011;391;51.052;6.954;2022-12-07T00:30:50;58.67;;;50.80;;
817;SDS011;391;51.052;6.954;2022-12-07T00:32:53;54.97;;;49.63;;
817;SDS011;391;51.052;6.954;2022-12-07T00:34:57;59.87;;;54.27;;
817;SDS011;391;51.052;6.954;2022-12-07T00:37:00;68.27;;;61.67;;
817;SDS011;391;51.052;6.954;2022-12-07T00:39:05;59.70;;;54.03;;
817;SDS011;391;51.052;6.954;2022-12-07T00:41:10;41.87;;;37.63;;
817;SDS011;391;51.052;6.954;2022-12-07T00:43:15;64.67;;;59.17;;
817;SDS011;391;51.052;6.954;2022-12-07T00:45:19;63.53;;;57.47;;
817;SDS011;391;51.052;6.954;2022-12-07T00:47:22;61.20;;;55.80;;
817;SDS011;391;51.052;6.954;2022-12-07T00:49:25;71.77;;;64.60;;
817;SDS011;391;51.052;6.954;2022-12-07T00:51:29;56.77;;;50.80;;
817;SDS011;391;51.052;6.954;2022-12-07T00:53:33;64.37;;;57.90;;
817;SDS011;391;51.052;6.954;2022-12-07T00:55:44;59.80;;;54.30;;
817;SDS011;391;51.052;6.954;2022-12-07T00:57:47;57.10;;;52.00;;
817;SDS011;391;51.052;6.954;2022-12-07T00:59:51;59.77;;;53.87;;
817;SDS011;391;51.052;6.954;2022-12-07T01:01:57;71.20;;;63.67;;
817;SDS011;391;51.052;6.954;2022-12-07T01:04:00;61.33;;;55.83;;
817;SDS011;391;51.052;6.954;2022-12-07T01:06:04;62.67;;;56.03;;
817;SDS011;391;51.052;6.954;2022-12-07T01:08:08;63.40;;;57.93;;
817;SDS011;391;51.052;6.954;2022-12-07T01:10:12;69.97;;;63.73;;
817;SDS011;391;51.052;6.954;2022-12-07T01:12:17;66.33;;;60.73;;
817;SDS011;391;51.052;6.954;2022-12-07T01:14:20;67.57;;;61.70;;
817;SDS011;391;51.052;6.954;2022-12-07T01:16:25;66.10;;;60.70;;
817;SDS011;391;51.052;6.954;2022-12-07T01:18:30;70.40;;;60.03;;
817;SDS011;391;51.052;6.954;2022-12-07T01:20:36;60.00;;;54.50;;
817;SDS011;391;51.052;6.954;2022-12-07T01:22:40;66.57;;;60.60;;
817;SDS011;391;51.052;6.954;2022-12-07T01:24:44;71.63;;;64.87;;
817;SDS011;391;51.052;6.954;2022-12-07T01:26:48;68.63;;;61.33;;
817;SDS011;391;51.052;6.954;2022-12-07T01:28:53;62.20;;;56.03;;
817;SDS011;391;51.052;6.954;2022-12-07T01:30:57;55.83;;;50.20;;
817;SDS011;391;51.052;6.954;2022-12-07T01:33:02;56.87;;;51.97;;
817;SDS011;391;51.052;6.954;2022-12-07T01:35:05;64.97;;;57.67;;
817;SDS011;391;51.052;6.954;2022-12-07T01:37:09;56.30;;;50.33;;
817;SDS011;391;51.052;6.954;2022-12-07T01:39:12;59.73;;;54.50;;
817;SDS011;391;51.052;6.954;2022-12-07T01:41:16;40.13;;;36.03;;
817;SDS011;391;51.052;6.954;2022-12-07T01:43:20;68.43;;;61.10;;
817;SDS011;391;51.052;6.954;2022-12-07T01:45:37;60.73;;;54.87;;
817;SDS011;391;51.052;6.954;2022-12-07T01:47:42;73.90;;;66.13;;
817;SDS011;391;51.052;6.954;2022-12-07T01:49:49;67.00;;;57.07;;
817;SDS011;391;51.052;6.954;2022-12-07T01:51:55;69.60;;;53.03;;
817;SDS011;391;51.052;6.954;2022-12-07T01:54:03;64.83;;;58.43;;
817;SDS011;391;51.052;6.954;2022-12-07T01:56:06;59.23;;;54.00;;
817;SDS011;391;51.052;6.954;2022-12-07T01:58:12;55.67;;;50.27;;
817;SDS011;391;51.052;6.954;2022-12-07T02:00:17;47.07;;;40.63;;
817;SDS011;391;51.052;6.954;2022-12-07T02:02:23;56.67;;;50.87;;
817;SDS011;391;51.052;6.954;2022-12-07T02:04:30;50.23;;;45.13;;
817;SDS011;391;51.052;6.954;2022-12-07T02:06:35;51.97;;;46.63;;
817;SDS011;391;51.052;6.954;2022-12-07T02:08:39;65.43;;;58.53;;
817;SDS011;391;51.052;6.954;2022-12-07T02:10:44;56.77;;;51.43;;
817;SDS011;391;51.052;6.954;2022-12-07T02:12:49;50.63;;;45.13;;
817;SDS011;391;51.052;6.954;2022-12-07T02:14:56;67.93;;;56.63;;
817;SDS011;391;51.052;6.954;2022-12-07T02:17:03;65.20;;;49.63;;
817;SDS011;391;51.052;6.954;2022-12-07T02:19:24;53.10;;;44.93;;
817;SDS011;391;51.052;6.954;2022-12-07T02:21:51;54.80;;;48.80;;
817;SDS011;391;51.052;6.954;2022-12-07T02:24:25;63.42;;;52.78;;
817;SDS011;391;51.052;6.954;2022-12-07T02:29:26;39.83;;;23.23;;
817;SDS011;391;51.052;6.954;2022-12-07T02:31:33;41.73;;;20.87;;
817;SDS011;391;51.052;6.954;2022-12-07T02:33:37;32.67;;;21.63;;
817;SDS011;391;51.052;6.954;2022-12-07T02:35:48;35.77;;;20.87;;
817;SDS011;391;51.052;6.954;2022-12-07T02:37:59;64.23;;;29.50;;
817;SDS011;391;51.052;6.954;2022-12-07T02:40:11;41.27;;;22.87;;
817;SDS011;391;51.052;6.954;2022-12-07T02:42:21;50.67;;;27.97;;
817;SDS011;391;51.052;6.954;2022-12-07T02:44:30;36.30;;;22.67;;
817;SDS011;391;51.052;6.954;2022-12-07T02:46:36;39.60;;;22.47;;
817;SDS011;391;51.052;6.954;2022-12-07T02:48:43;49.67;;;27.57;;
817;SDS011;391;51.052;6.954;2022-12-07T02:50:48;48.63;;;25.63;;
817;SDS011;391;51.052;6.954;2022-12-07T02:52:51;54.33;;;27.27;;
817;SDS011;391;51.052;6.954;2022-12-07T02:54:55;39.97;;;23.43;;
817;SDS011;391;51.052;6.954;2022-12-07T02:57:00;40.60;;;24.23;;
817;SDS011;391;51.052;6.954;2022-12-07T02:59:14;38.90;;;22.33;;
817;SDS011;391;51.052;6.954;2022-12-07T03:01:28;48.33;;;26.83;;
817;SDS011;391;51.052;6.954;2022-12-07T03:03:40;35.23;;;21.37;;
817;SDS011;391;51.052;6.954;2022-12-07T03:05:54;46.43;;;24.77;;
817;SDS011;391;51.052;6.954;2022-12-07T03:08:09;39.00;;;24.13;;
817;SDS011;391;51.052;6.954;2022-12-07T03:10:22;58.67;;;28.47;;
817;SDS011;391;51.052;6.954;2022-12-07T03:12:31;44.27;;;24.03;;
817;SDS011;391;51.052;6.954;2022-12-07T03:14:38;34.73;;;21.57;;
817;SDS011;391;51.052;6.954;2022-12-07T03:16:48;39.83;;;21.43;;
817;SDS011;391;51.052;6.954;2022-12-07T03:18:58;46.47;;;24.70;;
817;SDS011;391;51.052;6.954;2022-12-07T03:21:06;38.00;;;23.30;;
817;SDS011;391;51.052;6.954;2022-12-07T03:23:14;39.53;;;24.13;;
817;SDS011;391;51.052;6.954;2022-12-07T03:25:21;44.87;;;23.80;;
817;SDS011;391;51.052;6.954;2022-12-07T03:27:25;37.03;;;21.53;;
817;SDS011;391;51.052;6.954;2022-12-07T03:29:34;36.97;;;21.40;;
817;SDS011;391;51.052;6.954;2022-12-07T03:31:45;45.77;;;25.97;;
817;SDS011;391;51.052;6.954;2022-12-07T03:33:55;39.17;;;23.40;;
817;SDS011;391;51.052;6.954;2022-12-07T03:36:04;33.67;;;21.50;;
817;SDS011;391;51.052;6.954;2022-12-07T03:38:13;36.67;;;23.30;;
817;SDS011;391;51.052;6.954;2022-12-07T03:40:26;41.43;;;24.73;;
817;SDS011;391;51.052;6.954;2022-12-07T03:42:33;39.40;;;29.80;;
817;SDS011;391;51.052;6.954;2022-12-07T03:44:39;39.80;;;25.33;;
817;SDS011;391;51.052;6.954;2022-12-07T03:46:45;39.33;;;27.10;;
817;SDS011;391;51.052;6.954;2022-12-07T03:48:57;50.57;;;31.60;;
817;SDS011;391;51.052;6.954;2022-12-07T03:51:06;43.23;;;31.10;;
817;SDS011;391;51.052;6.954;2022-12-07T03:53:18;41.60;;;26.90;;
817;SDS011;391;51.052;6.954;2022-12-07T03:55:27;38.40;;;32.93;;
817;SDS011;391;51.052;6.954;2022-12-07T03:57:33;44.50;;;33.10;;
817;SDS011;391;51.052;6.954;2022-12-07T03:59:38;43.00;;;35.00;;
817;SDS011;391;51.052;6.954;2022-12-07T04:01:43;43.20;;;38.53;;
817;SDS011;391;51.052;6.954;2022-12-07T04:03:48;45.97;;;41.37;;
817;SDS011;391;51.052;6.954;2022-12-07T04:05:51;44.17;;;37.43;;
817;SDS011;391;51.052;6.954;2022-12-07T04:07:55;63.07;;;51.87;;
817;SDS011;391;51.052;6.954;2022-12-07T04:09:59;54.63;;;48.73;;
817;SDS011;391;51.052;6.954;2022-12-07T04:12:03;49.40;;;41.97;;
817;SDS011;391;51.052;6.954;2022-12-07T04:14:07;45.97;;;39.83;;
817;SDS011;391;51.052;6.954;2022-12-07T04:16:22;52.53;;;47.50;;
817;SDS011;391;51.052;6.954;2022-12-07T04:18:26;52.60;;;47.13;;
817;SDS011;391;51.052;6.954;2022-12-07T04:20:30;61.87;;;55.60;;
817;SDS011;391;51.052;6.954;2022-12-07T04:22:34;59.87;;;53.93;;
817;SDS011;391;51.052;6.954;2022-12-07T04:24:38;52.83;;;47.33;;
817;SDS011;391;51.052;6.954;2022-12-07T04:26:42;50.67;;;44.63;;
817;SDS011;391;51.052;6.954;2022-12-07T04:28:46;47.37;;;40.53;;
817;SDS011;391;51.052;6.954;2022-12-07T04:30:49;47.80;;;42.77;;
817;SDS011;391;51.052;6.954;2022-12-07T04:32:52;45.30;;;40.10;;
817;SDS011;391;51.052;6.954;2022-12-07T04:34:57;47.87;;;39.90;;
817;SDS011;391;51.052;6.954;2022-12-07T04:37:01;41.00;;;32.67;;
817;SDS011;391;51.052;6.954;2022-12-07T04:39:05;47.10;;;39.17;;
817;SDS011;391;51.052;6.954;2022-12-07T04:41:10;50.03;;;44.70;;
817;SDS011;391;51.052;6.954;2022-12-07T04:43:13;49.77;;;44.83;;
817;SDS011;391;51.052;6.954;2022-12-07T04:45:16;45.78;;;40.90;;
817;SDS011;391;51.052;6.954;2022-12-07T04:47:20;47.53;;;38.85;;
817;SDS011;391;51.052;6.954;2022-12-07T04:49:24;59.47;;;43.83;;
817;SDS011;391;51.052;6.954;2022-12-07T04:51:28;57.93;;;49.77;;
817;SDS011;391;51.052;6.954;2022-12-07T04:53:33;45.63;;;40.63;;
817;SDS011;391;51.052;6.954;2022-12-07T04:55:36;65.97;;;42.00;;
817;SDS011;391;51.052;6.954;2022-12-07T04:57:40;63.85;;;50.75;;
817;SDS011;391;51.052;6.954;2022-12-07T04:59:43;44.00;;;37.63;;
817;SDS011;391;51.052;6.954;2022-12-07T05:01:47;65.17;;;58.30;;
817;SDS011;391;51.052;6.954;2022-12-07T05:03:50;63.67;;;57.60;;
817;SDS011;391;51.052;6.954;2022-12-07T05:05:53;59.60;;;53.90;;
817;SDS011;391;51.052;6.954;2022-12-07T05:07:57;92.80;;;62.50;;
817;SDS011;391;51.052;6.954;2022-12-07T05:10:02;83.03;;;70.87;;
817;SDS011;391;51.052;6.954;2022-12-07T05:12:06;53.60;;;47.60;;
817;SDS011;391;51.052;6.954;2022-12-07T05:14:11;45.70;;;39.63;;
817;SDS011;391;51.052;6.954;2022-12-07T05:16:16;81.57;;;67.47;;
817;SDS011;391;51.052;6.954;2022-12-07T05:18:20;76.07;;;68.13;;
817;SDS011;391;51.052;6.954;2022-12-07T05:20:23;64.10;;;57.65;;
817;SDS011;391;51.052;6.954;2022-12-07T05:22:27;63.42;;;57.47;;
817;SDS011;391;51.052;6.954;2022-12-07T05:24:30;82.60;;;74.00;;
817;SDS011;391;51.052;6.954;2022-12-07T05:26:35;87.23;;;79.27;;
817;SDS011;391;51.052;6.954;2022-12-07T05:28:39;74.20;;;67.23;;
817;SDS011;391;51.052;6.954;2022-12-07T05:30:43;91.47;;;83.18;;
817;SDS011;391;51.052;6.954;2022-12-07T05:32:46;80.95;;;70.50;;
817;SDS011;391;51.052;6.954;2022-12-07T05:34:50;96.30;;;87.07;;
817;SDS011;391;51.052;6.954;2022-12-07T05:36:53;89.70;;;81.47;;
817;SDS011;391;51.052;6.954;2022-12-07T05:38:57;65.77;;;60.03;;
817;SDS011;391;51.052;6.954;2022-12-07T05:41:01;78.07;;;70.60;;
817;SDS011;391;51.052;6.954;2022-12-07T05:43:06;60.90;;;51.63;;
817;SDS011;391;51.052;6.954;2022-12-07T05:45:10;78.13;;;70.78;;
817;SDS011;391;51.052;6.954;2022-12-07T05:47:14;75.10;;;67.77;;
817;SDS011;391;51.052;6.954;2022-12-07T05:49:18;71.28;;;64.18;;
817;SDS011;391;51.052;6.954;2022-12-07T05:51:22;83.03;;;74.88;;
817;SDS011;391;51.052;6.954;2022-12-07T05:53:25;76.53;;;69.10;;
817;SDS011;391;51.052;6.954;2022-12-07T05:55:29;86.80;;;78.80;;
817;SDS011;391;51.052;6.954;2022-12-07T05:57:32;93.27;;;84.93;;
817;SDS011;391;51.052;6.954;2022-12-07T05:59:37;99.10;;;89.57;;
817;SDS011;391;51.052;6.954;2022-12-07T06:01:40;86.53;;;78.78;;
817;SDS011;391;51.052;6.954;2022-12-07T06:03:43;88.37;;;79.87;;
817;SDS011;391;51.052;6.954;2022-12-07T06:05:47;77.07;;;70.23;;
817;SDS011;391;51.052;6.954;2022-12-07T06:07:50;80.30;;;72.67;;
817;SDS011;391;51.052;6.954;2022-12-07T06:09:54;71.13;;;64.53;;
817;SDS011;391;51.052;6.954;2022-12-07T06:11:57;71.43;;;65.20;;
817;SDS011;391;51.052;6.954;2022-12-07T06:14:18;87.40;;;78.65;;
817;SDS011;391;51.052;6.954;2022-12-07T06:16:23;94.60;;;86.10;;
817;SDS011;391;51.052;6.954;2022-12-07T06:18:27;64.00;;;58.30;;
817;SDS011;391;51.052;6.954;2022-12-07T06:20:30;90.07;;;81.70;;
817;SDS011;391;51.052;6.954;2022-12-07T06:22:33;90.40;;;82.35;;
817;SDS011;391;51.052;6.954;2022-12-07T06:24:37;72.63;;;65.97;;
817;SDS011;391;51.052;6.954;2022-12-07T06:26:41;78.50;;;71.80;;
817;SDS011;391;51.052;6.954;2022-12-07T06:28:45;66.87;;;60.10;;
817;SDS011;391;51.052;6.954;2022-12-07T06:30:56;51.20;;;45.93;;
817;SDS011;391;51.052;6.954;2022-12-07T06:33:01;55.17;;;46.53;;
817;SDS011;391;51.052;6.954;2022-12-07T06:35:05;46.50;;;41.80;;
817;SDS011;391;51.052;6.954;2022-12-07T06:37:08;65.43;;;54.93;;
817;SDS011;391;51.052;6.954;2022-12-07T06:39:11;51.00;;;46.42;;
817;SDS011;391;51.052;6.954;2022-12-07T06:41:15;66.37;;;59.17;;
817;SDS011;391;51.052;6.954;2022-12-07T06:43:20;57.57;;;52.00;;
817;SDS011;391;51.052;6.954;2022-12-07T06:45:23;45.37;;;39.60;;
817;SDS011;391;51.052;6.954;2022-12-07T06:47:27;47.27;;;42.87;;
817;SDS011;391;51.052;6.954;2022-12-07T06:49:43;33.53;;;29.90;;
817;SDS011;391;51.052;6.954;2022-12-07T06:51:46;43.63;;;39.23;;
817;SDS011;391;51.052;6.954;2022-12-07T06:53:51;60.77;;;55.10;;
817;SDS011;391;51.052;6.954;2022-12-07T06:55:54;52.78;;;47.95;;
817;SDS011;391;51.052;6.954;2022-12-07T06:57:58;51.70;;;45.67;;
817;SDS011;391;51.052;6.954;2022-12-07T07:00:02;62.87;;;57.17;;
817;SDS011;391;51.052;6.954;2022-12-07T07:02:07;49.43;;;45.10;;
817;SDS011;391;51.052;6.954;2022-12-07T07:04:11;52.83;;;47.63;;
817;SDS011;391;51.052;6.954;2022-12-07T07:06:16;54.80;;;50.27;;
817;SDS011;391;51.052;6.954;2022-12-07T07:08:19;60.43;;;55.23;;
817;SDS011;391;51.052;6.954;2022-12-07T07:10:24;65.37;;;59.87;;
817;SDS011;391;51.052;6.954;2022-12-07T07:12:27;59.87;;;54.57;;
817;SDS011;391;51.052;6.954;2022-12-07T07:14:31;58.93;;;53.13;;
817;SDS011;391;51.052;6.954;2022-12-07T07:16:34;47.83;;;43.33;;
817;SDS011;391;51.052;6.954;2022-12-07T07:18:38;44.73;;;40.13;;
817;SDS011;391;51.052;6.954;2022-12-07T07:20:41;61.37;;;56.00;;
817;SDS011;391;51.052;6.954;2022-12-07T07:22:46;59.97;;;54.60;;
817;SDS011;391;51.052;6.954;2022-12-07T07:24:49;68.67;;;62.17;;
817;SDS011;391;51.052;6.954;2022-12-07T07:26:53;62.27;;;56.27;;
817;SDS011;391;51.052;6.954;2022-12-07T07:28:56;60.73;;;55.23;;
817;SDS011;391;51.052;6.954;2022-12-07T07:31:00;51.87;;;47.20;;
817;SDS011;391;51.052;6.954;2022-12-07T07:33:04;65.07;;;59.23;;
817;SDS011;391;51.052;6.954;2022-12-07T07:35:08;106.60;;;97.50;;
817;SDS011;391;51.052;6.954;2022-12-07T07:37:11;74.33;;;68.43;;
817;SDS011;391;51.052;6.954;2022-12-07T07:39:23;84.80;;;78.33;;
817;SDS011;391;51.052;6.954;2022-12-07T07:41:27;76.00;;;69.60;;
817;SDS011;391;51.052;6.954;2022-12-07T07:43:30;68.30;;;61.90;;
817;SDS011;391;51.052;6.954;2022-12-07T07:45:35;95.33;;;87.43;;
817;SDS011;391;51.052;6.954;2022-12-07T07:47:39;103.00;;;94.20;;
817;SDS011;391;51.052;6.954;2022-12-07T07:49:43;86.73;;;78.43;;
817;SDS011;391;51.052;6.954;2022-12-07T07:51:49;96.40;;;87.80;;
817;SDS011;391;51.052;6.954;2022-12-07T07:53:52;124.93;;;113.50;;
817;SDS011;391;51.052;6.954;2022-12-07T07:55:57;108.03;;;98.32;;
817;SDS011;391;51.052;6.954;2022-12-07T07:58:01;119.22;;;108.53;;
817;SDS011;391;51.052;6.954;2022-12-07T08:00:05;90.87;;;83.23;;
817;SDS011;391;51.052;6.954;2022-12-07T08:02:13;154.40;;;134.77;;
817;SDS011;391;51.052;6.954;2022-12-07T08:04:18;96.17;;;87.90;;
817;SDS011;391;51.052;6.954;2022-12-07T08:06:21;172.63;;;133.77;;
817;SDS011;391;51.052;6.954;2022-12-07T08:08:32;86.57;;;79.00;;
817;SDS011;391;51.052;6.954;2022-12-07T08:10:36;86.90;;;78.77;;
817;SDS011;391;51.052;6.954;2022-12-07T08:12:41;135.95;;;122.20;;
817;SDS011;391;51.052;6.954;2022-12-07T08:15:04;92.18;;;84.32;;
817;SDS011;391;51.052;6.954;2022-12-07T08:17:08;103.77;;;92.77;;
817;SDS011;391;51.052;6.954;2022-12-07T08:19:11;194.40;;;149.07;;
817;SDS011;391;51.052;6.954;2022-12-07T08:21:15;214.07;;;152.37;;
817;SDS011;391;51.052;6.954;2022-12-07T08:23:18;100.50;;;91.50;;
817;SDS011;391;51.052;6.954;2022-12-07T08:25:31;174.10;;;137.60;;
817;SDS011;391;51.052;6.954;2022-12-07T08:27:35;126.83;;;115.43;;
817;SDS011;391;51.052;6.954;2022-12-07T08:29:39;209.75;;;145.65;;
817;SDS011;391;51.052;6.954;2022-12-07T08:31:43;130.02;;;111.45;;
817;SDS011;391;51.052;6.954;2022-12-07T08:33:46;205.05;;;152.73;;
817;SDS011;391;51.052;6.954;2022-12-07T08:35:50;122.07;;;110.10;;
817;SDS011;391;51.052;6.954;2022-12-07T08:37:53;106.17;;;95.57;;
817;SDS011;391;51.052;6.954;2022-12-07T08:39:59;102.23;;;92.73;;
817;SDS011;391;51.052;6.954;2022-12-07T08:42:03;109.23;;;99.43;;
817;SDS011;391;51.052;6.954;2022-12-07T08:44:06;108.20;;;98.77;;
817;SDS011;391;51.052;6.954;2022-12-07T08:46:13;105.43;;;96.17;;
817;SDS011;391;51.052;6.954;2022-12-07T08:48:22;95.13;;;87.13;;
817;SDS011;391;51.052;6.954;2022-12-07T08:50:26;113.47;;;103.80;;
817;SDS011;391;51.052;6.954;2022-12-07T08:52:30;116.35;;;105.95;;
817;SDS011;391;51.052;6.954;2022-12-07T08:54:34;102.23;;;94.03;;
817;SDS011;391;51.052;6.954;2022-12-07T08:56:41;209.82;;;151.82;;
817;SDS011;391;51.052;6.954;2022-12-07T08:58:45;188.48;;;148.05;;
817;SDS011;391;51.052;6.954;2022-12-07T09:00:49;229.55;;;154.98;;
817;SDS011;391;51.052;6.954;2022-12-07T09:02:54;179.25;;;132.38;;
817;SDS011;391;51.052;6.954;2022-12-07T09:04:59;228.05;;;153.93;;
817;SDS011;391;51.052;6.954;2022-12-07T09:07:02;242.55;;;153.57;;
817;SDS011;391;51.052;6.954;2022-12-07T09:09:06;107.67;;;97.87;;
817;SDS011;391;51.052;6.954;2022-12-07T09:11:11;97.93;;;88.83;;
817;SDS011;391;51.052;6.954;2022-12-07T09:13:14;110.37;;;100.87;;
817;SDS011;391;51.052;6.954;2022-12-07T09:15:18;107.67;;;97.10;;
817;SDS011;391;51.052;6.954;2022-12-07T09:17:21;109.67;;;99.53;;
817;SDS011;391;51.052;6.954;2022-12-07T09:19:26;112.07;;;101.87;;
817;SDS011;391;51.052;6.954;2022-12-07T09:21:30;120.73;;;109.27;;
817;SDS011;391;51.052;6.954;2022-12-07T09:23:33;225.48;;;163.43;;
817;SDS011;391;51.052;6.954;2022-12-07T09:25:37;241.90;;;155.10;;
817;SDS011;391;51.052;6.954;2022-12-07T09:27:41;230.27;;;149.43;;
817;SDS011;391;51.052;6.954;2022-12-07T09:29:44;214.88;;;161.02;;
817;SDS011;391;51.052;6.954;2022-12-07T09:31:48;181.93;;;162.20;;
817;SDS011;391;51.052;6.954;2022-12-07T09:33:54;242.77;;;153.30;;
817;SDS011;391;51.052;6.954;2022-12-07T09:35:59;254.70;;;164.25;;
817;SDS011;391;51.052;6.954;2022-12-07T09:38:02;241.85;;;152.90;;
817;SDS011;391;51.052;6.954;2022-12-07T09:40:06;236.02;;;158.32;;
817;SDS011;391;51.052;6.954;2022-12-07T09:42:11;221.50;;;147.77;;
817;SDS011;391;51.052;6.954;2022-12-07T09:44:30;251.88;;;150.68;;
817;SDS011;391;51.052;6.954;2022-12-07T09:46:36;240.05;;;146.60;;
817;SDS011;391;51.052;6.954;2022-12-07T09:48:42;156.47;;;122.70;;
817;SDS011;391;51.052;6.954;2022-12-07T09:50:47;177.80;;;126.23;;
817;SDS011;391;51.052;6.954;2022-12-07T09:52:52;228.93;;;163.30;;
817;SDS011;391;51.052;6.954;2022-12-07T09:54:58;243.88;;;151.98;;
817;SDS011;391;51.052;6.954;2022-12-07T09:57:02;215.52;;;153.02;;
817;SDS011;391;51.052;6.954;2022-12-07T09:59:08;259.10;;;171.23;;
817;SDS011;391;51.052;6.954;2022-12-07T10:01:16;237.05;;;162.65;;
817;SDS011;391;51.052;6.954;2022-12-07T10:03:22;242.30;;;161.00;;
817;SDS011;391;51.052;6.954;2022-12-07T10:05:27;234.95;;;164.75;;
817;SDS011;391;51.052;6.954;2022-12-07T10:07:33;247.77;;;179.88;;
817;SDS011;391;51.052;6.954;2022-12-07T10:09:38;229.77;;;166.40;;
817;SDS011;391;51.052;6.954;2022-12-07T10:14:11;250.05;;;154.85;;
817;SDS011;391;51.052;6.954;2022-12-07T10:18:44;235.40;;;151.85;;
817;SDS011;391;51.052;6.954;2022-12-07T10:20:47;234.57;;;145.83;;
817;SDS011;391;51.052;6.954;2022-12-07T10:22:55;241.38;;;150.00;;
817;SDS011;391;51.052;6.954;2022-12-07T10:25:07;242.37;;;152.03;;
817;SDS011;391;51.052;6.954;2022-12-07T10:27:17;234.03;;;142.27;;
817;SDS011;391;51.052;6.954;2022-12-07T10:29:24;252.75;;;157.70;;
817;SDS011;391;51.052;6.954;2022-12-07T10:31:32;248.77;;;155.63;;
817;SDS011;391;51.052;6.954;2022-12-07T10:33:48;242.30;;;174.65;;
817;SDS011;391;51.052;6.954;2022-12-07T10:35:53;229.32;;;164.60;;
817;SDS011;391;51.052;6.954;2022-12-07T10:37:57;235.15;;;154.82;;
817;SDS011;391;51.052;6.954;2022-12-07T10:40:10;197.77;;;152.47;;
817;SDS011;391;51.052;6.954;2022-12-07T10:42:29;227.90;;;152.27;;
817;SDS011;391;51.052;6.954;2022-12-07T10:44:33;200.13;;;156.23;;
817;SDS011;391;51.052;6.954;2022-12-07T10:46:41;218.67;;;162.43;;
817;SDS011;391;51.052;6.954;2022-12-07T10:48:52;228.27;;;146.23;;
817;SDS011;391;51.052;6.954;2022-12-07T10:51:07;245.52;;;152.18;;
817;SDS011;391;51.052;6.954;2022-12-07T10:53:25;217.20;;;143.23;;
817;SDS011;391;51.052;6.954;2022-12-07T10:55:41;236.00;;;150.13;;
817;SDS011;391;51.052;6.954;2022-12-07T10:58:08;189.40;;;144.70;;
817;SDS011;391;51.052;6.954;2022-12-07T11:00:23;249.90;;;153.43;;
817;SDS011;391;51.052;6.954;2022-12-07T11:02:32;241.10;;;164.10;;
817;SDS011;391;51.052;6.954;2022-12-07T11:04:52;210.27;;;151.90;;
817;SDS011;391;51.052;6.954;2022-12-07T11:07:05;238.27;;;164.60;;
817;SDS011;391;51.052;6.954;2022-12-07T11:12:08;212.63;;;151.00;;
817;SDS011;391;51.052;6.954;2022-12-07T11:14:18;227.93;;;152.73;;
817;SDS011;391;51.052;6.954;2022-12-07T11:16:31;237.05;;;151.82;;
817;SDS011;391;51.052;6.954;2022-12-07T11:18:44;211.63;;;142.07;;
817;SDS011;391;51.052;6.954;2022-12-07T11:20:57;226.07;;;147.63;;
817;SDS011;391;51.052;6.954;2022-12-07T11:23:11;225.30;;;150.65;;
817;SDS011;391;51.052;6.954;2022-12-07T11:25:23;193.23;;;151.03;;
817;SDS011;391;51.052;6.954;2022-12-07T11:27:36;264.00;;;167.67;;
817;SDS011;391;51.052;6.954;2022-12-07T11:29:49;349.63;;;183.85;;
817;SDS011;391;51.052;6.954;2022-12-07T11:32:01;321.70;;;176.63;;
817;SDS011;391;51.052;6.954;2022-12-07T11:34:16;281.65;;;172.15;;
817;SDS011;391;51.052;6.954;2022-12-07T11:36:31;274.08;;;173.43;;
817;SDS011;391;51.052;6.954;2022-12-07T11:38:41;339.50;;;169.57;;
817;SDS011;391;51.052;6.954;2022-12-07T11:40:49;286.13;;;158.82;;
817;SDS011;391;51.052;6.954;2022-12-07T11:42:58;268.33;;;166.10;;
817;SDS011;391;51.052;6.954;2022-12-07T11:45:10;332.38;;;167.15;;
817;SDS011;391;51.052;6.954;2022-12-07T11:47:18;330.35;;;161.95;;
817;SDS011;391;51.052;6.954;2022-12-07T11:49:33;289.13;;;151.35;;
817;SDS011;391;51.052;6.954;2022-12-07T11:51:43;272.63;;;145.47;;
817;SDS011;391;51.052;6.954;2022-12-07T11:53:53;329.48;;;153.80;;
817;SDS011;391;51.052;6.954;2022-12-07T11:56:00;429.98;;;168.52;;
817;SDS011;391;51.052;6.954;2022-12-07T11:58:12;335.52;;;168.57;;
817;SDS011;391;51.052;6.954;2022-12-07T12:00:25;298.13;;;172.75;;
817;SDS011;391;51.052;6.954;2022-12-07T12:02:31;267.40;;;168.83;;
817;SDS011;391;51.052;6.954;2022-12-07T12:04:43;245.98;;;169.32;;
817;SDS011;391;51.052;6.954;2022-12-07T12:06:53;241.83;;;162.07;;
817;SDS011;391;51.052;6.954;2022-12-07T12:09:00;242.82;;;161.07;;
817;SDS011;391;51.052;6.954;2022-12-07T12:11:34;199.07;;;165.90;;
817;SDS011;391;51.052;6.954;2022-12-07T12:16:43;326.23;;;173.97;;
817;SDS011;391;51.052;6.954;2022-12-07T12:19:04;299.23;;;191.37;;
817;SDS011;391;51.052;6.954;2022-12-07T12:21:22;258.58;;;183.23;;
817;SDS011;391;51.052;6.954;2022-12-07T12:23:34;267.37;;;183.70;;
817;SDS011;391;51.052;6.954;2022-12-07T12:25:44;433.30;;;191.82;;
817;SDS011;391;51.052;6.954;2022-12-07T12:27:49;316.17;;;187.00;;
817;SDS011;391;51.052;6.954;2022-12-07T12:29:55;259.07;;;176.33;;
817;SDS011;391;51.052;6.954;2022-12-07T12:32:07;248.85;;;173.98;;
817;SDS011;391;51.052;6.954;2022-12-07T12:34:30;273.60;;;162.43;;
817;SDS011;391;51.052;6.954;2022-12-07T12:36:45;216.23;;;163.67;;
817;SDS011;391;51.052;6.954;2022-12-07T12:38:50;212.30;;;142.10;;
817;SDS011;391;51.052;6.954;2022-12-07T12:41:10;224.63;;;165.10;;
817;SDS011;391;51.052;6.954;2022-12-07T12:44:24;234.47;;;131.63;;
817;SDS011;391;51.052;6.954;2022-12-07T12:46:47;229.07;;;159.33;;
817;SDS011;391;51.052;6.954;2022-12-07T12:48:57;254.00;;;158.57;;
817;SDS011;391;51.052;6.954;2022-12-07T12:51:47;236.97;;;151.80;;
817;SDS011;391;51.052;6.954;2022-12-07T12:53:51;249.40;;;162.37;;
817;SDS011;391;51.052;6.954;2022-12-07T12:56:11;220.30;;;170.97;;
817;SDS011;391;51.052;6.954;2022-12-07T12:58:36;231.23;;;166.27;;
817;SDS011;391;51.052;6.954;2022-12-07T13:00:45;258.50;;;182.93;;
817;SDS011;391;51.052;6.954;2022-12-07T13:02:49;254.97;;;180.00;;
817;SDS011;391;51.052;6.954;2022-12-07T13:04:56;248.33;;;169.47;;
817;SDS011;391;51.052;6.954;2022-12-07T13:07:02;259.60;;;180.77;;
817;SDS011;391;51.052;6.954;2022-12-07T13:09:15;253.77;;;173.87;;
817;SDS011;391;51.052;6.954;2022-12-07T13:11:25;258.97;;;171.10;;
817;SDS011;391;51.052;6.954;2022-12-07T13:13:34;276.87;;;200.20;;
817;SDS011;391;51.052;6.954;2022-12-07T13:15:38;266.23;;;186.73;;